sensor_id;sensor_type;location;lat;lon;timestamp;P1;durP1;ratioP1;P2;durP2;ratioP2
50533;SDS011;60631;49.236;8.398;2022-08-19T00:02:38;15.20;;;13.60;;
50533;SDS011;60631;49.236;8.398;2022-08-19T00:05:39;14.60;;;13.20;;
50533;SDS011;60631;49.236;8.398;2022-08-19T00:08:42;15.35;;;13.95;;
50533;SDS011;60631;49.236;8.398;2022-08-19T00:11:43;15.00;;;13.55;;
50533;SDS011;60631;49.236;8.398;2022-08-19T00:14:45;15.23;;;13.63;;
50533;SDS011;60631;49.236;8.398;2022-08-19T00:17:46;15.63;;;14.02;;
50533;SDS011;60631;49.236;8.398;2022-08-19T00:20:47;15.93;;;14.23;;
50533;SDS011;60631;49.236;8.398;2022-08-19T00:23:49;14.95;;;13.45;;
50533;SDS011;60631;49.236;8.398;2022-08-19T00:26:50;15.77;;;14.27;;
50533;SDS011;60631;49.236;8.398;2022-08-19T00:29:52;15.27;;;13.77;;
50533;SDS011;60631;49.236;8.398;2022-08-19T00:32:53;14.90;;;13.50;;
50533;SDS011;60631;49.236;8.398;2022-08-19T00:35:55;16.45;;;14.85;;
50533;SDS011;60631;49.236;8.398;2022-08-19T00:38:56;15.10;;;13.70;;
50533;SDS011;60631;49.236;8.398;2022-08-19T00:41:57;15.38;;;13.88;;
50533;SDS011;60631;49.236;8.398;2022-08-19T00:44:59;15.80;;;14.30;;
50533;SDS011;60631;49.236;8.398;2022-08-19T00:48:00;15.60;;;14.02;;
50533;SDS011;60631;49.236;8.398;2022-08-19T00:51:04;16.40;;;14.85;;
50533;SDS011;60631;49.236;8.398;2022-08-19T00:54:06;16.05;;;14.38;;
50533;SDS011;60631;49.236;8.398;2022-08-19T00:57:10;16.02;;;14.40;;
50533;SDS011;60631;49.236;8.398;2022-08-19T01:00:16;15.57;;;14.02;;
50533;SDS011;60631;49.236;8.398;2022-08-19T01:03:20;15.73;;;14.07;;
50533;SDS011;60631;49.236;8.398;2022-08-19T01:06:21;15.77;;;14.18;;
50533;SDS011;60631;49.236;8.398;2022-08-19T01:09:23;15.80;;;14.20;;
50533;SDS011;60631;49.236;8.398;2022-08-19T01:12:24;16.13;;;14.63;;
50533;SDS011;60631;49.236;8.398;2022-08-19T01:15:27;15.20;;;13.70;;
50533;SDS011;60631;49.236;8.398;2022-08-19T01:18:35;15.40;;;14.00;;
50533;SDS011;60631;49.236;8.398;2022-08-19T01:21:48;16.10;;;14.60;;
50533;SDS011;60631;49.236;8.398;2022-08-19T01:24:53;17.02;;;15.07;;
50533;SDS011;60631;49.236;8.398;2022-08-19T01:27:55;16.20;;;14.50;;
50533;SDS011;60631;49.236;8.398;2022-08-19T01:30:56;15.48;;;13.93;;
50533;SDS011;60631;49.236;8.398;2022-08-19T01:33:57;16.15;;;14.55;;
50533;SDS011;60631;49.236;8.398;2022-08-19T01:36:58;15.45;;;14.05;;
50533;SDS011;60631;49.236;8.398;2022-08-19T01:39:59;15.40;;;13.95;;
50533;SDS011;60631;49.236;8.398;2022-08-19T01:43:01;16.20;;;14.52;;
50533;SDS011;60631;49.236;8.398;2022-08-19T01:46:03;15.48;;;14.07;;
50533;SDS011;60631;49.236;8.398;2022-08-19T01:49:06;16.15;;;14.55;;
50533;SDS011;60631;49.236;8.398;2022-08-19T01:52:08;16.48;;;14.80;;
50533;SDS011;60631;49.236;8.398;2022-08-19T01:55:11;16.52;;;14.93;;
50533;SDS011;60631;49.236;8.398;2022-08-19T01:58:19;16.75;;;14.98;;
50533;SDS011;60631;49.236;8.398;2022-08-19T02:04:22;16.67;;;14.98;;
50533;SDS011;60631;49.236;8.398;2022-08-19T02:07:25;15.65;;;14.15;;
50533;SDS011;60631;49.236;8.398;2022-08-19T02:10:29;15.40;;;14.00;;
50533;SDS011;60631;49.236;8.398;2022-08-19T02:13:30;16.77;;;15.13;;
50533;SDS011;60631;49.236;8.398;2022-08-19T02:16:32;16.40;;;14.75;;
50533;SDS011;60631;49.236;8.398;2022-08-19T02:19:33;15.73;;;14.23;;
50533;SDS011;60631;49.236;8.398;2022-08-19T02:22:34;16.00;;;14.32;;
50533;SDS011;60631;49.236;8.398;2022-08-19T02:25:35;15.48;;;14.07;;
50533;SDS011;60631;49.236;8.398;2022-08-19T02:28:40;15.73;;;14.05;;
50533;SDS011;60631;49.236;8.398;2022-08-19T02:31:43;16.30;;;14.70;;
50533;SDS011;60631;49.236;8.398;2022-08-19T02:34:44;15.18;;;13.77;;
50533;SDS011;60631;49.236;8.398;2022-08-19T02:37:45;16.30;;;14.73;;
50533;SDS011;60631;49.236;8.398;2022-08-19T02:41:06;16.33;;;14.73;;
50533;SDS011;60631;49.236;8.398;2022-08-19T02:44:11;15.63;;;14.18;;
50533;SDS011;60631;49.236;8.398;2022-08-19T02:47:13;16.17;;;14.57;;
50533;SDS011;60631;49.236;8.398;2022-08-19T02:50:15;16.00;;;14.60;;
50533;SDS011;60631;49.236;8.398;2022-08-19T02:53:16;15.65;;;14.15;;
50533;SDS011;60631;49.236;8.398;2022-08-19T02:56:18;15.52;;;14.13;;
50533;SDS011;60631;49.236;8.398;2022-08-19T02:59:20;16.40;;;14.90;;
50533;SDS011;60631;49.236;8.398;2022-08-19T03:02:21;15.88;;;14.38;;
50533;SDS011;60631;49.236;8.398;2022-08-19T03:05:22;15.75;;;14.25;;
50533;SDS011;60631;49.236;8.398;2022-08-19T03:08:23;16.08;;;14.57;;
50533;SDS011;60631;49.236;8.398;2022-08-19T03:11:27;17.27;;;15.45;;
50533;SDS011;60631;49.236;8.398;2022-08-19T03:17:31;18.25;;;16.45;;
50533;SDS011;60631;49.236;8.398;2022-08-19T03:20:32;17.58;;;15.70;;
50533;SDS011;60631;49.236;8.398;2022-08-19T03:23:34;17.38;;;15.63;;
50533;SDS011;60631;49.236;8.398;2022-08-19T03:26:43;17.08;;;15.18;;
50533;SDS011;60631;49.236;8.398;2022-08-19T03:29:46;16.73;;;15.02;;
50533;SDS011;60631;49.236;8.398;2022-08-19T03:32:47;16.98;;;15.27;;
50533;SDS011;60631;49.236;8.398;2022-08-19T03:35:59;17.85;;;16.13;;
50533;SDS011;60631;49.236;8.398;2022-08-19T03:39:26;16.83;;;15.23;;
50533;SDS011;60631;49.236;8.398;2022-08-19T03:42:27;16.88;;;15.15;;
50533;SDS011;60631;49.236;8.398;2022-08-19T03:45:28;17.02;;;15.35;;
50533;SDS011;60631;49.236;8.398;2022-08-19T03:48:30;17.23;;;15.52;;
50533;SDS011;60631;49.236;8.398;2022-08-19T03:51:34;15.38;;;13.98;;
50533;SDS011;60631;49.236;8.398;2022-08-19T03:54:37;17.05;;;15.35;;
50533;SDS011;60631;49.236;8.398;2022-08-19T03:57:38;17.45;;;15.80;;
50533;SDS011;60631;49.236;8.398;2022-08-19T04:00:41;15.95;;;14.43;;
50533;SDS011;60631;49.236;8.398;2022-08-19T04:03:43;16.70;;;15.00;;
50533;SDS011;60631;49.236;8.398;2022-08-19T04:06:46;15.60;;;14.20;;
50533;SDS011;60631;49.236;8.398;2022-08-19T04:09:48;16.20;;;14.73;;
50533;SDS011;60631;49.236;8.398;2022-08-19T04:12:49;17.02;;;15.27;;
50533;SDS011;60631;49.236;8.398;2022-08-19T04:15:50;16.92;;;15.20;;
50533;SDS011;60631;49.236;8.398;2022-08-19T04:18:52;16.55;;;14.95;;
50533;SDS011;60631;49.236;8.398;2022-08-19T04:21:53;16.48;;;14.93;;
50533;SDS011;60631;49.236;8.398;2022-08-19T04:24:55;16.80;;;15.02;;
50533;SDS011;60631;49.236;8.398;2022-08-19T04:27:56;16.52;;;14.93;;
50533;SDS011;60631;49.236;8.398;2022-08-19T04:30:57;17.15;;;15.55;;
50533;SDS011;60631;49.236;8.398;2022-08-19T04:33:59;16.60;;;15.00;;
50533;SDS011;60631;49.236;8.398;2022-08-19T04:37:04;16.52;;;14.93;;
50533;SDS011;60631;49.236;8.398;2022-08-19T04:40:10;15.88;;;14.43;;
50533;SDS011;60631;49.236;8.398;2022-08-19T04:43:30;15.70;;;14.10;;
50533;SDS011;60631;49.236;8.398;2022-08-19T04:46:32;15.77;;;14.38;;
50533;SDS011;60631;49.236;8.398;2022-08-19T04:49:33;15.23;;;13.65;;
50533;SDS011;60631;49.236;8.398;2022-08-19T04:52:34;14.63;;;13.32;;
50533;SDS011;60631;49.236;8.398;2022-08-19T04:55:38;14.80;;;13.50;;
50533;SDS011;60631;49.236;8.398;2022-08-19T04:58:41;14.18;;;12.77;;
50533;SDS011;60631;49.236;8.398;2022-08-19T05:01:44;14.13;;;12.82;;
50533;SDS011;60631;49.236;8.398;2022-08-19T05:04:57;14.00;;;12.77;;
50533;SDS011;60631;49.236;8.398;2022-08-19T05:08:00;14.63;;;13.13;;
50533;SDS011;60631;49.236;8.398;2022-08-19T05:11:01;14.20;;;12.90;;
50533;SDS011;60631;49.236;8.398;2022-08-19T05:14:08;13.95;;;12.23;;
50533;SDS011;60631;49.236;8.398;2022-08-19T05:17:09;14.00;;;12.60;;
50533;SDS011;60631;49.236;8.398;2022-08-19T05:20:10;13.60;;;12.30;;
50533;SDS011;60631;49.236;8.398;2022-08-19T05:23:30;13.60;;;12.30;;
50533;SDS011;60631;49.236;8.398;2022-08-19T05:26:31;13.73;;;12.32;;
50533;SDS011;60631;49.236;8.398;2022-08-19T05:29:32;14.15;;;12.85;;
50533;SDS011;60631;49.236;8.398;2022-08-19T05:32:34;14.05;;;12.60;;
50533;SDS011;60631;49.236;8.398;2022-08-19T05:35:36;14.15;;;12.82;;
50533;SDS011;60631;49.236;8.398;2022-08-19T05:38:41;13.73;;;12.52;;
50533;SDS011;60631;49.236;8.398;2022-08-19T05:41:43;13.02;;;11.93;;
50533;SDS011;60631;49.236;8.398;2022-08-19T05:44:45;12.43;;;11.23;;
50533;SDS011;60631;49.236;8.398;2022-08-19T05:47:46;12.77;;;11.60;;
50533;SDS011;60631;49.236;8.398;2022-08-19T05:50:47;12.73;;;11.52;;
50533;SDS011;60631;49.236;8.398;2022-08-19T05:53:50;12.38;;;11.27;;
50533;SDS011;60631;49.236;8.398;2022-08-19T05:56:52;11.60;;;10.48;;
50533;SDS011;60631;49.236;8.398;2022-08-19T05:59:54;12.10;;;11.00;;
50533;SDS011;60631;49.236;8.398;2022-08-19T06:02:55;11.75;;;10.65;;
50533;SDS011;60631;49.236;8.398;2022-08-19T06:05:57;12.18;;;11.05;;
50533;SDS011;60631;49.236;8.398;2022-08-19T06:09:00;12.13;;;10.95;;
50533;SDS011;60631;49.236;8.398;2022-08-19T06:12:03;12.53;;;11.30;;
50533;SDS011;60631;49.236;8.398;2022-08-19T06:15:07;12.38;;;11.32;;
50533;SDS011;60631;49.236;8.398;2022-08-19T06:18:10;12.73;;;11.63;;
50533;SDS011;60631;49.236;8.398;2022-08-19T06:21:12;12.18;;;11.07;;
50533;SDS011;60631;49.236;8.398;2022-08-19T06:24:14;12.60;;;11.30;;
50533;SDS011;60631;49.236;8.398;2022-08-19T06:27:16;12.57;;;11.38;;
50533;SDS011;60631;49.236;8.398;2022-08-19T06:30:18;12.25;;;10.98;;
50533;SDS011;60631;49.236;8.398;2022-08-19T06:33:19;11.98;;;10.88;;
50533;SDS011;60631;49.236;8.398;2022-08-19T06:36:21;11.82;;;10.73;;
50533;SDS011;60631;49.236;8.398;2022-08-19T06:39:29;10.88;;;9.98;;
50533;SDS011;60631;49.236;8.398;2022-08-19T06:42:33;13.20;;;10.48;;
50533;SDS011;60631;49.236;8.398;2022-08-19T06:45:36;10.93;;;10.02;;
50533;SDS011;60631;49.236;8.398;2022-08-19T06:48:39;11.48;;;10.48;;
50533;SDS011;60631;49.236;8.398;2022-08-19T06:51:45;11.13;;;10.13;;
50533;SDS011;60631;49.236;8.398;2022-08-19T06:54:50;11.45;;;10.45;;
50533;SDS011;60631;49.236;8.398;2022-08-19T06:57:51;11.38;;;10.38;;
50533;SDS011;60631;49.236;8.398;2022-08-19T07:00:53;10.98;;;10.00;;
50533;SDS011;60631;49.236;8.398;2022-08-19T07:03:54;10.88;;;9.88;;
50533;SDS011;60631;49.236;8.398;2022-08-19T07:07:04;10.32;;;9.35;;
50533;SDS011;60631;49.236;8.398;2022-08-19T07:10:10;10.50;;;9.60;;
50533;SDS011;60631;49.236;8.398;2022-08-19T07:13:12;9.25;;;8.32;;
50533;SDS011;60631;49.236;8.398;2022-08-19T07:16:14;10.38;;;9.48;;
50533;SDS011;60631;49.236;8.398;2022-08-19T07:22:19;9.50;;;8.57;;
50533;SDS011;60631;49.236;8.398;2022-08-19T07:25:23;10.80;;;8.90;;
50533;SDS011;60631;49.236;8.398;2022-08-19T07:28:24;9.52;;;8.63;;
50533;SDS011;60631;49.236;8.398;2022-08-19T07:31:26;10.32;;;9.32;;
50533;SDS011;60631;49.236;8.398;2022-08-19T07:34:28;9.15;;;8.25;;
50533;SDS011;60631;49.236;8.398;2022-08-19T07:37:30;8.27;;;7.68;;
50533;SDS011;60631;49.236;8.398;2022-08-19T07:40:31;8.75;;;7.95;;
50533;SDS011;60631;49.236;8.398;2022-08-19T07:43:33;7.97;;;7.18;;
50533;SDS011;60631;49.236;8.398;2022-08-19T07:46:36;7.95;;;7.15;;
50533;SDS011;60631;49.236;8.398;2022-08-19T07:49:38;7.90;;;7.20;;
50533;SDS011;60631;49.236;8.398;2022-08-19T07:52:39;7.88;;;6.97;;
50533;SDS011;60631;49.236;8.398;2022-08-19T07:55:41;7.93;;;7.18;;
50533;SDS011;60631;49.236;8.398;2022-08-19T07:58:43;7.78;;;7.07;;
50533;SDS011;60631;49.236;8.398;2022-08-19T08:01:45;7.55;;;6.93;;
50533;SDS011;60631;49.236;8.398;2022-08-19T08:04:47;8.07;;;7.38;;
50533;SDS011;60631;49.236;8.398;2022-08-19T08:08:07;7.22;;;6.53;;
50533;SDS011;60631;49.236;8.398;2022-08-19T08:11:27;8.45;;;7.72;;
50533;SDS011;60631;49.236;8.398;2022-08-19T08:14:32;7.40;;;6.70;;
50533;SDS011;60631;49.236;8.398;2022-08-19T08:17:35;8.48;;;7.68;;
50533;SDS011;60631;49.236;8.398;2022-08-19T08:20:37;7.93;;;7.15;;
50533;SDS011;60631;49.236;8.398;2022-08-19T08:23:39;8.30;;;7.55;;
50533;SDS011;60631;49.236;8.398;2022-08-19T08:26:41;7.95;;;7.10;;
50533;SDS011;60631;49.236;8.398;2022-08-19T08:29:44;7.97;;;7.18;;
50533;SDS011;60631;49.236;8.398;2022-08-19T08:32:45;8.10;;;7.22;;
50533;SDS011;60631;49.236;8.398;2022-08-19T08:35:47;7.68;;;6.95;;
50533;SDS011;60631;49.236;8.398;2022-08-19T08:38:48;7.78;;;6.97;;
50533;SDS011;60631;49.236;8.398;2022-08-19T08:45:08;7.63;;;6.85;;
50533;SDS011;60631;49.236;8.398;2022-08-19T08:48:27;6.63;;;6.00;;
50533;SDS011;60631;49.236;8.398;2022-08-19T08:51:56;6.18;;;5.45;;
50533;SDS011;60631;49.236;8.398;2022-08-19T08:55:14;6.28;;;5.68;;
50533;SDS011;60631;49.236;8.398;2022-08-19T08:58:20;6.80;;;6.10;;
50533;SDS011;60631;49.236;8.398;2022-08-19T09:01:27;7.63;;;6.93;;
50533;SDS011;60631;49.236;8.398;2022-08-19T09:04:29;7.18;;;6.47;;
50533;SDS011;60631;49.236;8.398;2022-08-19T09:11:03;6.35;;;5.80;;
50533;SDS011;60631;49.236;8.398;2022-08-19T09:17:14;7.40;;;6.00;;
50533;SDS011;60631;49.236;8.398;2022-08-19T09:20:18;6.65;;;6.03;;
50533;SDS011;60631;49.236;8.398;2022-08-19T09:23:21;6.75;;;6.05;;
50533;SDS011;60631;49.236;8.398;2022-08-19T09:26:23;6.63;;;6.03;;
50533;SDS011;60631;49.236;8.398;2022-08-19T09:29:25;6.70;;;6.20;;
50533;SDS011;60631;49.236;8.398;2022-08-19T09:32:26;6.90;;;6.20;;
50533;SDS011;60631;49.236;8.398;2022-08-19T09:35:28;6.65;;;5.40;;
50533;SDS011;60631;49.236;8.398;2022-08-19T09:38:30;6.32;;;5.72;;
50533;SDS011;60631;49.236;8.398;2022-08-19T09:41:31;6.18;;;5.57;;
50533;SDS011;60631;49.236;8.398;2022-08-19T09:44:33;5.60;;;5.10;;
50533;SDS011;60631;49.236;8.398;2022-08-19T09:47:34;6.07;;;4.47;;
50533;SDS011;60631;49.236;8.398;2022-08-19T09:50:38;5.55;;;5.05;;
50533;SDS011;60631;49.236;8.398;2022-08-19T09:53:39;4.78;;;4.38;;
50533;SDS011;60631;49.236;8.398;2022-08-19T09:56:40;5.25;;;4.78;;
50533;SDS011;60631;49.236;8.398;2022-08-19T09:59:41;5.18;;;4.68;;
50533;SDS011;60631;49.236;8.398;2022-08-19T10:02:43;6.40;;;5.82;;
50533;SDS011;60631;49.236;8.398;2022-08-19T10:05:44;5.90;;;5.30;;
50533;SDS011;60631;49.236;8.398;2022-08-19T10:08:54;5.10;;;4.70;;
50533;SDS011;60631;49.236;8.398;2022-08-19T10:11:55;5.63;;;5.22;;
50533;SDS011;60631;49.236;8.398;2022-08-19T10:14:57;6.65;;;4.90;;
50533;SDS011;60631;49.236;8.398;2022-08-19T10:17:58;5.97;;;4.80;;
50533;SDS011;60631;49.236;8.398;2022-08-19T10:21:06;5.75;;;4.90;;
50533;SDS011;60631;49.236;8.398;2022-08-19T10:24:09;5.65;;;5.07;;
50533;SDS011;60631;49.236;8.398;2022-08-19T10:27:10;7.32;;;5.28;;
50533;SDS011;60631;49.236;8.398;2022-08-19T10:30:11;6.43;;;5.93;;
50533;SDS011;60631;49.236;8.398;2022-08-19T10:33:13;6.80;;;6.22;;
50533;SDS011;60631;49.236;8.398;2022-08-19T10:36:19;7.03;;;6.40;;
50533;SDS011;60631;49.236;8.398;2022-08-19T10:39:23;6.05;;;5.57;;
50533;SDS011;60631;49.236;8.398;2022-08-19T10:42:24;6.15;;;5.65;;
50533;SDS011;60631;49.236;8.398;2022-08-19T10:45:25;5.30;;;4.90;;
50533;SDS011;60631;49.236;8.398;2022-08-19T10:48:27;5.72;;;5.32;;
50533;SDS011;60631;49.236;8.398;2022-08-19T10:51:28;5.90;;;5.40;;
50533;SDS011;60631;49.236;8.398;2022-08-19T10:54:48;8.13;;;5.60;;
50533;SDS011;60631;49.236;8.398;2022-08-19T10:58:17;6.13;;;5.55;;
50533;SDS011;60631;49.236;8.398;2022-08-19T11:01:25;5.57;;;4.97;;
50533;SDS011;60631;49.236;8.398;2022-08-19T11:04:27;6.03;;;5.43;;
50533;SDS011;60631;49.236;8.398;2022-08-19T11:07:28;5.95;;;5.35;;
50533;SDS011;60631;49.236;8.398;2022-08-19T11:10:29;5.18;;;4.78;;
50533;SDS011;60631;49.236;8.398;2022-08-19T11:13:36;5.30;;;4.90;;
50533;SDS011;60631;49.236;8.398;2022-08-19T11:16:40;6.00;;;5.47;;
50533;SDS011;60631;49.236;8.398;2022-08-19T11:19:41;5.90;;;5.40;;
50533;SDS011;60631;49.236;8.398;2022-08-19T11:22:42;5.75;;;5.30;;
50533;SDS011;60631;49.236;8.398;2022-08-19T11:25:44;5.40;;;4.97;;
50533;SDS011;60631;49.236;8.398;2022-08-19T11:28:46;5.60;;;4.72;;
50533;SDS011;60631;49.236;8.398;2022-08-19T11:31:48;5.65;;;5.15;;
50533;SDS011;60631;49.236;8.398;2022-08-19T11:34:50;5.80;;;5.30;;
50533;SDS011;60631;49.236;8.398;2022-08-19T11:37:51;5.28;;;4.78;;
50533;SDS011;60631;49.236;8.398;2022-08-19T11:41:00;5.80;;;5.40;;
50533;SDS011;60631;49.236;8.398;2022-08-19T11:44:02;5.75;;;5.25;;
50533;SDS011;60631;49.236;8.398;2022-08-19T11:47:05;5.80;;;5.30;;
50533;SDS011;60631;49.236;8.398;2022-08-19T11:50:07;5.80;;;5.40;;
50533;SDS011;60631;49.236;8.398;2022-08-19T11:53:09;5.97;;;5.47;;
50533;SDS011;60631;49.236;8.398;2022-08-19T11:56:10;5.70;;;5.20;;
50533;SDS011;60631;49.236;8.398;2022-08-19T11:59:12;5.70;;;5.30;;
50533;SDS011;60631;49.236;8.398;2022-08-19T12:02:13;5.30;;;4.90;;
50533;SDS011;60631;49.236;8.398;2022-08-19T12:05:16;5.53;;;5.00;;
50533;SDS011;60631;49.236;8.398;2022-08-19T12:08:18;5.35;;;4.93;;
50533;SDS011;60631;49.236;8.398;2022-08-19T12:11:19;5.68;;;5.28;;
50533;SDS011;60631;49.236;8.398;2022-08-19T12:14:20;5.57;;;5.07;;
50533;SDS011;60631;49.236;8.398;2022-08-19T12:17:22;5.80;;;5.35;;
50533;SDS011;60631;49.236;8.398;2022-08-19T12:20:24;5.75;;;5.35;;
50533;SDS011;60631;49.236;8.398;2022-08-19T12:23:26;5.70;;;5.20;;
50533;SDS011;60631;49.236;8.398;2022-08-19T12:26:28;5.68;;;5.18;;
50533;SDS011;60631;49.236;8.398;2022-08-19T12:29:32;5.70;;;5.30;;
50533;SDS011;60631;49.236;8.398;2022-08-19T12:32:34;5.50;;;5.10;;
50533;SDS011;60631;49.236;8.398;2022-08-19T12:35:38;6.95;;;5.60;;
50533;SDS011;60631;49.236;8.398;2022-08-19T12:38:41;6.30;;;5.68;;
50533;SDS011;60631;49.236;8.398;2022-08-19T12:41:43;6.45;;;5.28;;
50533;SDS011;60631;49.236;8.398;2022-08-19T12:44:44;5.97;;;5.47;;
50533;SDS011;60631;49.236;8.398;2022-08-19T12:47:45;5.18;;;4.78;;
50533;SDS011;60631;49.236;8.398;2022-08-19T12:50:47;5.85;;;5.35;;
50533;SDS011;60631;49.236;8.398;2022-08-19T12:53:48;5.32;;;4.93;;
50533;SDS011;60631;49.236;8.398;2022-08-19T12:56:50;4.90;;;4.55;;
50533;SDS011;60631;49.236;8.398;2022-08-19T12:59:51;4.90;;;4.55;;
50533;SDS011;60631;49.236;8.398;2022-08-19T13:02:54;8.05;;;4.82;;
50533;SDS011;60631;49.236;8.398;2022-08-19T13:05:56;4.78;;;4.45;;
50533;SDS011;60631;49.236;8.398;2022-08-19T13:08:57;4.18;;;3.88;;
50533;SDS011;60631;49.236;8.398;2022-08-19T13:11:58;3.95;;;3.67;;
50533;SDS011;60631;49.236;8.398;2022-08-19T13:15:03;4.00;;;3.70;;
50533;SDS011;60631;49.236;8.398;2022-08-19T13:18:04;3.95;;;3.58;;
50533;SDS011;60631;49.236;8.398;2022-08-19T13:21:07;4.22;;;3.80;;
50533;SDS011;60631;49.236;8.398;2022-08-19T13:24:09;3.73;;;3.43;;
50533;SDS011;60631;49.236;8.398;2022-08-19T13:27:10;3.55;;;3.35;;
50533;SDS011;60631;49.236;8.398;2022-08-19T13:30:12;3.75;;;3.45;;
50533;SDS011;60631;49.236;8.398;2022-08-19T13:33:33;3.35;;;3.15;;
50533;SDS011;60631;49.236;8.398;2022-08-19T13:36:34;3.53;;;3.22;;
50533;SDS011;60631;49.236;8.398;2022-08-19T13:39:36;3.75;;;3.45;;
50533;SDS011;60631;49.236;8.398;2022-08-19T13:42:37;3.58;;;3.28;;
50533;SDS011;60631;49.236;8.398;2022-08-19T13:45:38;3.30;;;3.10;;
50533;SDS011;60631;49.236;8.398;2022-08-19T13:48:39;3.05;;;2.85;;
50533;SDS011;60631;49.236;8.398;2022-08-19T13:51:42;2.60;;;2.50;;
50533;SDS011;60631;49.236;8.398;2022-08-19T13:54:43;3.30;;;3.00;;
50533;SDS011;60631;49.236;8.398;2022-08-19T13:57:44;2.92;;;2.60;;
50533;SDS011;60631;49.236;8.398;2022-08-19T14:00:46;4.07;;;2.70;;
50533;SDS011;60631;49.236;8.398;2022-08-19T14:03:48;3.58;;;2.88;;
50533;SDS011;60631;49.236;8.398;2022-08-19T14:06:50;3.58;;;2.60;;
50533;SDS011;60631;49.236;8.398;2022-08-19T14:09:51;2.80;;;2.60;;
50533;SDS011;60631;49.236;8.398;2022-08-19T14:12:53;2.90;;;2.70;;
50533;SDS011;60631;49.236;8.398;2022-08-19T14:15:56;2.60;;;2.42;;
50533;SDS011;60631;49.236;8.398;2022-08-19T14:18:58;3.55;;;2.80;;
50533;SDS011;60631;49.236;8.398;2022-08-19T14:21:59;2.85;;;2.63;;
50533;SDS011;60631;49.236;8.398;2022-08-19T14:25:00;3.00;;;2.70;;
50533;SDS011;60631;49.236;8.398;2022-08-19T14:28:01;2.80;;;2.60;;
50533;SDS011;60631;49.236;8.398;2022-08-19T14:31:02;2.80;;;2.60;;
50533;SDS011;60631;49.236;8.398;2022-08-19T14:34:03;3.20;;;2.60;;
50533;SDS011;60631;49.236;8.398;2022-08-19T14:37:04;2.90;;;2.70;;
50533;SDS011;60631;49.236;8.398;2022-08-19T14:40:06;3.63;;;2.60;;
50533;SDS011;60631;49.236;8.398;2022-08-19T14:43:08;2.70;;;2.60;;
50533;SDS011;60631;49.236;8.398;2022-08-19T14:46:10;2.63;;;2.42;;
50533;SDS011;60631;49.236;8.398;2022-08-19T14:49:13;2.85;;;2.60;;
50533;SDS011;60631;49.236;8.398;2022-08-19T14:52:14;4.60;;;2.65;;
50533;SDS011;60631;49.236;8.398;2022-08-19T14:55:16;2.80;;;2.60;;
50533;SDS011;60631;49.236;8.398;2022-08-19T14:58:17;3.55;;;3.00;;
50533;SDS011;60631;49.236;8.398;2022-08-19T15:01:19;3.55;;;2.50;;
50533;SDS011;60631;49.236;8.398;2022-08-19T15:04:22;5.07;;;2.60;;
50533;SDS011;60631;49.236;8.398;2022-08-19T15:07:23;3.25;;;2.90;;
50533;SDS011;60631;49.236;8.398;2022-08-19T15:10:25;5.13;;;2.65;;
50533;SDS011;60631;49.236;8.398;2022-08-19T15:13:28;2.80;;;2.60;;
50533;SDS011;60631;49.236;8.398;2022-08-19T15:16:30;3.00;;;2.80;;
50533;SDS011;60631;49.236;8.398;2022-08-19T15:19:32;3.30;;;2.70;;
50533;SDS011;60631;49.236;8.398;2022-08-19T15:25:37;3.38;;;3.08;;
50533;SDS011;60631;49.236;8.398;2022-08-19T15:28:38;3.20;;;2.90;;
50533;SDS011;60631;49.236;8.398;2022-08-19T15:31:39;2.72;;;2.50;;
50533;SDS011;60631;49.236;8.398;2022-08-19T15:34:41;2.90;;;2.70;;
50533;SDS011;60631;49.236;8.398;2022-08-19T15:37:42;2.40;;;2.30;;
50533;SDS011;60631;49.236;8.398;2022-08-19T15:40:44;3.30;;;2.90;;
50533;SDS011;60631;49.236;8.398;2022-08-19T15:43:46;3.05;;;2.78;;
50533;SDS011;60631;49.236;8.398;2022-08-19T15:46:48;3.63;;;2.80;;
50533;SDS011;60631;49.236;8.398;2022-08-19T15:49:49;3.65;;;3.00;;
50533;SDS011;60631;49.236;8.398;2022-08-19T15:52:55;3.30;;;2.95;;
50533;SDS011;60631;49.236;8.398;2022-08-19T15:55:57;2.97;;;2.78;;
50533;SDS011;60631;49.236;8.398;2022-08-19T15:58:59;2.75;;;2.55;;
50533;SDS011;60631;49.236;8.398;2022-08-19T16:02:32;3.33;;;2.95;;
50533;SDS011;60631;49.236;8.398;2022-08-19T16:05:52;2.80;;;2.60;;
50533;SDS011;60631;49.236;8.398;2022-08-19T16:09:12;3.15;;;2.95;;
50533;SDS011;60631;49.236;8.398;2022-08-19T16:12:14;5.85;;;3.00;;
50533;SDS011;60631;49.236;8.398;2022-08-19T16:15:16;3.55;;;3.20;;
50533;SDS011;60631;49.236;8.398;2022-08-19T16:18:17;2.97;;;2.78;;
50533;SDS011;60631;49.236;8.398;2022-08-19T16:21:22;2.90;;;2.70;;
50533;SDS011;60631;49.236;8.398;2022-08-19T16:24:26;3.47;;;2.92;;
50533;SDS011;60631;49.236;8.398;2022-08-19T16:27:27;3.10;;;2.90;;
50533;SDS011;60631;49.236;8.398;2022-08-19T16:30:31;4.57;;;2.95;;
50533;SDS011;60631;49.236;8.398;2022-08-19T16:33:32;3.42;;;3.05;;
50533;SDS011;60631;49.236;8.398;2022-08-19T16:36:34;3.10;;;2.83;;
50533;SDS011;60631;49.236;8.398;2022-08-19T16:39:35;3.45;;;3.15;;
50533;SDS011;60631;49.236;8.398;2022-08-19T16:42:37;4.50;;;3.08;;
50533;SDS011;60631;49.236;8.398;2022-08-19T16:45:38;3.50;;;3.20;;
50533;SDS011;60631;49.236;8.398;2022-08-19T16:48:39;3.40;;;3.00;;
50533;SDS011;60631;49.236;8.398;2022-08-19T16:51:42;3.30;;;3.05;;
50533;SDS011;60631;49.236;8.398;2022-08-19T16:54:45;4.45;;;3.17;;
50533;SDS011;60631;49.236;8.398;2022-08-19T16:57:46;3.78;;;3.00;;
50533;SDS011;60631;49.236;8.398;2022-08-19T17:00:47;3.42;;;2.83;;
50533;SDS011;60631;49.236;8.398;2022-08-19T17:03:49;3.53;;;3.22;;
50533;SDS011;60631;49.236;8.398;2022-08-19T17:06:52;3.67;;;2.95;;
50533;SDS011;60631;49.236;8.398;2022-08-19T17:09:53;3.50;;;3.20;;
50533;SDS011;60631;49.236;8.398;2022-08-19T17:12:54;3.92;;;3.20;;
50533;SDS011;60631;49.236;8.398;2022-08-19T17:15:56;3.38;;;3.08;;
50533;SDS011;60631;49.236;8.398;2022-08-19T17:18:57;3.47;;;3.17;;
50533;SDS011;60631;49.236;8.398;2022-08-19T17:22:01;3.60;;;3.30;;
50533;SDS011;60631;49.236;8.398;2022-08-19T17:25:02;3.20;;;3.00;;
50533;SDS011;60631;49.236;8.398;2022-08-19T17:31:08;3.78;;;3.05;;
50533;SDS011;60631;49.236;8.398;2022-08-19T17:34:09;5.20;;;3.55;;
50533;SDS011;60631;49.236;8.398;2022-08-19T17:37:10;4.40;;;3.30;;
50533;SDS011;60631;49.236;8.398;2022-08-19T17:40:11;3.50;;;3.20;;
50533;SDS011;60631;49.236;8.398;2022-08-19T17:43:15;3.75;;;3.28;;
50533;SDS011;60631;49.236;8.398;2022-08-19T17:46:18;3.70;;;3.50;;
50533;SDS011;60631;49.236;8.398;2022-08-19T17:49:20;4.10;;;3.53;;
50533;SDS011;60631;49.236;8.398;2022-08-19T17:52:21;3.60;;;3.30;;
50533;SDS011;60631;49.236;8.398;2022-08-19T17:55:22;3.58;;;3.38;;
50533;SDS011;60631;49.236;8.398;2022-08-19T17:58:23;3.70;;;3.40;;
50533;SDS011;60631;49.236;8.398;2022-08-19T18:01:25;4.07;;;3.67;;
50533;SDS011;60631;49.236;8.398;2022-08-19T18:04:26;3.53;;;3.22;;
50533;SDS011;60631;49.236;8.398;2022-08-19T18:07:29;3.50;;;3.30;;
50533;SDS011;60631;49.236;8.398;2022-08-19T18:10:34;4.72;;;3.35;;
50533;SDS011;60631;49.236;8.398;2022-08-19T18:13:36;3.55;;;3.15;;
50533;SDS011;60631;49.236;8.398;2022-08-19T18:16:37;3.70;;;3.38;;
50533;SDS011;60631;49.236;8.398;2022-08-19T18:19:41;3.55;;;3.30;;
50533;SDS011;60631;49.236;8.398;2022-08-19T18:22:43;4.13;;;3.53;;
50533;SDS011;60631;49.236;8.398;2022-08-19T18:25:46;3.83;;;3.22;;
50533;SDS011;60631;49.236;8.398;2022-08-19T18:28:47;3.25;;;2.88;;
50533;SDS011;60631;49.236;8.398;2022-08-19T18:31:48;3.80;;;3.50;;
50533;SDS011;60631;49.236;8.398;2022-08-19T18:34:50;3.70;;;3.38;;
50533;SDS011;60631;49.236;8.398;2022-08-19T18:37:52;3.85;;;3.55;;